Terminal Aerodrome Forecast
Issued by NWS Louisville, KY

Home | Current Version | Previous Version | Text Only | Print | Product List | Glossary On
Versions: 1 2 3 4 5 6 7 8 9 10 11 12 13
607
FTUS43 KLMK 221710
TAFSDF
TAF
KSDF 221710Z 2218/2324 03013G17KT 5SM SHRA BR BKN013 OVC035
     FM222030 04012G20KT P6SM VCSH BKN025 OVC045
     FM222300 04009KT P6SM OVC040
     FM230700 03007KT P6SM BKN060=

USA.gov is the U.S. government's official web portal to all federal, state and local government web resources and services.